sensor_id;sensor_type;location;lat;lon;timestamp;pressure;altitude;pressure_sealevel;temperature;humidity
22283;BME280;11310;51.528;21.204;2023-04-26T00:00:19;99140.50;;;7.70;100.00
22283;BME280;11310;51.528;21.204;2023-04-26T00:02:48;99147.41;;;7.71;100.00
22283;BME280;11310;51.528;21.204;2023-04-26T00:05:17;99144.03;;;7.69;100.00
22283;BME280;11310;51.528;21.204;2023-04-26T00:07:46;99155.22;;;7.71;100.00
22283;BME280;11310;51.528;21.204;2023-04-26T00:10:16;99154.53;;;7.68;100.00
22283;BME280;11310;51.528;21.204;2023-04-26T00:12:45;99151.13;;;7.66;100.00
22283;BME280;11310;51.528;21.204;2023-04-26T00:15:15;99149.44;;;7.65;100.00
22283;BME280;11310;51.528;21.204;2023-04-26T00:17:44;99149.44;;;7.65;100.00
22283;BME280;11310;51.528;21.204;2023-04-26T00:20:14;99160.81;;;7.64;100.00
22283;BME280;11310;51.528;21.204;2023-04-26T00:22:43;99151.31;;;7.63;100.00
22283;BME280;11310;51.528;21.204;2023-04-26T00:25:12;99158.22;;;7.64;100.00
22283;BME280;11310;51.528;21.204;2023-04-26T00:27:41;99162.56;;;7.63;100.00
22283;BME280;11310;51.528;21.204;2023-04-26T00:30:11;99158.34;;;7.61;100.00
22283;BME280;11310;51.528;21.204;2023-04-26T00:32:44;99165.41;;;7.59;100.00
22283;BME280;11310;51.528;21.204;2023-04-26T00:35:14;99157.53;;;7.60;100.00
22283;BME280;11310;51.528;21.204;2023-04-26T00:37:44;99168.94;;;7.58;100.00
22283;BME280;11310;51.528;21.204;2023-04-26T00:40:14;99162.88;;;7.57;100.00
22283;BME280;11310;51.528;21.204;2023-04-26T00:42:44;99170.78;;;7.56;100.00
22283;BME280;11310;51.528;21.204;2023-04-26T00:45:13;99171.75;;;7.53;100.00
22283;BME280;11310;51.528;21.204;2023-04-26T00:47:43;99173.63;;;7.51;100.00
22283;BME280;11310;51.528;21.204;2023-04-26T00:50:12;99175.53;;;7.48;100.00
22283;BME280;11310;51.528;21.204;2023-04-26T00:52:42;99175.59;;;7.46;100.00
22283;BME280;11310;51.528;21.204;2023-04-26T00:55:14;99173.81;;;7.47;100.00
22283;BME280;11310;51.528;21.204;2023-04-26T00:57:44;99176.47;;;7.45;100.00
22283;BME280;11310;51.528;21.204;2023-04-26T01:00:13;99179.19;;;7.44;100.00
22283;BME280;11310;51.528;21.204;2023-04-26T01:02:43;99178.47;;;7.40;100.00
22283;BME280;11310;51.528;21.204;2023-04-26T01:05:12;99178.47;;;7.40;100.00
22283;BME280;11310;51.528;21.204;2023-04-26T01:07:44;99181.19;;;7.39;100.00
22283;BME280;11310;51.528;21.204;2023-04-26T01:10:13;99181.25;;;7.37;100.00
22283;BME280;11310;51.528;21.204;2023-04-26T01:12:42;99178.69;;;7.36;100.00
22283;BME280;11310;51.528;21.204;2023-04-26T01:15:10;99180.69;;;7.31;100.00
22283;BME280;11310;51.528;21.204;2023-04-26T01:17:39;99184.28;;;7.28;100.00
22283;BME280;11310;51.528;21.204;2023-04-26T01:20:12;99187.88;;;7.26;100.00
22283;BME280;11310;51.528;21.204;2023-04-26T01:22:42;99188.00;;;7.23;100.00
22283;BME280;11310;51.528;21.204;2023-04-26T01:25:11;99191.59;;;7.20;100.00
22283;BME280;11310;51.528;21.204;2023-04-26T01:27:40;99187.50;;;7.15;100.00
22283;BME280;11310;51.528;21.204;2023-04-26T01:30:09;99193.56;;;7.15;100.00
22283;BME280;11310;51.528;21.204;2023-04-26T01:32:38;99196.38;;;7.11;100.00
22283;BME280;11310;51.528;21.204;2023-04-26T01:35:07;99193.94;;;7.08;100.00
22283;BME280;11310;51.528;21.204;2023-04-26T01:37:36;99198.34;;;7.06;100.00
22283;BME280;11310;51.528;21.204;2023-04-26T01:40:07;99206.31;;;7.03;100.00
22283;BME280;11310;51.528;21.204;2023-04-26T01:42:36;99206.31;;;7.03;100.00
22283;BME280;11310;51.528;21.204;2023-04-26T01:45:06;99207.22;;;7.02;100.00
22283;BME280;11310;51.528;21.204;2023-04-26T01:47:53;99205.69;;;6.98;100.00
22283;BME280;11310;51.528;21.204;2023-04-26T01:50:25;99210.09;;;6.96;100.00
22283;BME280;11310;51.528;21.204;2023-04-26T01:52:54;99212.78;;;6.94;100.00
22283;BME280;11310;51.528;21.204;2023-04-26T01:55:33;99208.69;;;6.89;100.00
22283;BME280;11310;51.528;21.204;2023-04-26T01:58:03;99215.88;;;6.84;100.00
22283;BME280;11310;51.528;21.204;2023-04-26T02:00:32;99213.41;;;6.81;100.00
22283;BME280;11310;51.528;21.204;2023-04-26T02:03:01;99209.09;;;6.80;100.00
22283;BME280;11310;51.528;21.204;2023-04-26T02:05:30;99220.41;;;6.79;100.00
22283;BME280;11310;51.528;21.204;2023-04-26T02:08:04;99216.97;;;6.78;100.00
22283;BME280;11310;51.528;21.204;2023-04-26T02:10:36;99216.13;;;6.78;100.00
22283;BME280;11310;51.528;21.204;2023-04-26T02:13:07;99216.13;;;6.78;100.00
22283;BME280;11310;51.528;21.204;2023-04-26T02:15:37;99217.81;;;6.79;100.00
22283;BME280;11310;51.528;21.204;2023-04-26T02:18:06;99219.66;;;6.77;100.00
22283;BME280;11310;51.528;21.204;2023-04-26T02:20:36;99219.78;;;6.74;100.00
22283;BME280;11310;51.528;21.204;2023-04-26T02:23:05;99213.91;;;6.69;100.00
22283;BME280;11310;51.528;21.204;2023-04-26T02:25:44;99216.53;;;6.69;100.00
22283;BME280;11310;51.528;21.204;2023-04-26T02:28:14;99227.09;;;6.66;100.00
22283;BME280;11310;51.528;21.204;2023-04-26T02:30:44;99224.69;;;6.61;100.00
22283;BME280;11310;51.528;21.204;2023-04-26T02:33:18;99226.56;;;6.58;100.00
22283;BME280;11310;51.528;21.204;2023-04-26T02:35:48;99228.47;;;6.54;100.00
22283;BME280;11310;51.528;21.204;2023-04-26T02:38:18;99229.56;;;6.49;100.00
22283;BME280;11310;51.528;21.204;2023-04-26T02:40:47;99237.19;;;6.53;100.00
22283;BME280;11310;51.528;21.204;2023-04-26T02:43:16;99229.31;;;6.55;100.00
22283;BME280;11310;51.528;21.204;2023-04-26T02:45:46;99238.94;;;6.53;100.00
22283;BME280;11310;51.528;21.204;2023-04-26T02:48:21;99238.16;;;6.51;100.00
22283;BME280;11310;51.528;21.204;2023-04-26T02:50:54;99233.31;;;6.42;100.00
22283;BME280;11310;51.528;21.204;2023-04-26T02:53:24;99234.13;;;6.44;100.00
22283;BME280;11310;51.528;21.204;2023-04-26T02:55:57;99242.97;;;6.40;100.00
22283;BME280;11310;51.528;21.204;2023-04-26T02:58:27;99234.38;;;6.38;100.00
22283;BME280;11310;51.528;21.204;2023-04-26T03:00:56;99239.78;;;6.33;100.00
22283;BME280;11310;51.528;21.204;2023-04-26T03:03:27;99236.47;;;6.30;100.00
22283;BME280;11310;51.528;21.204;2023-04-26T03:05:57;99245.16;;;6.29;100.00
22283;BME280;11310;51.528;21.204;2023-04-26T03:08:25;99239.19;;;6.27;100.00
22283;BME280;11310;51.528;21.204;2023-04-26T03:10:56;99238.69;;;6.17;100.00
22283;BME280;11310;51.528;21.204;2023-04-26T03:13:25;99239.69;;;6.15;100.00
22283;BME280;11310;51.528;21.204;2023-04-26T03:15:55;99245.19;;;6.07;100.00
22283;BME280;11310;51.528;21.204;2023-04-26T03:18:24;99242.84;;;6.01;100.00
22283;BME280;11310;51.528;21.204;2023-04-26T03:20:55;99249.94;;;5.98;100.00
22283;BME280;11310;51.528;21.204;2023-04-26T03:23:24;99246.59;;;5.94;100.00
22283;BME280;11310;51.528;21.204;2023-04-26T03:25:53;99256.44;;;5.88;100.00
22283;BME280;11310;51.528;21.204;2023-04-26T03:28:23;99251.22;;;5.88;100.00
22283;BME280;11310;51.528;21.204;2023-04-26T03:30:52;99251.38;;;5.83;100.00
22283;BME280;11310;51.528;21.204;2023-04-26T03:33:21;99263.38;;;5.87;100.00
22283;BME280;11310;51.528;21.204;2023-04-26T03:35:50;99256.53;;;5.85;100.00
22283;BME280;11310;51.528;21.204;2023-04-26T03:38:19;99263.53;;;5.83;100.00
22283;BME280;11310;51.528;21.204;2023-04-26T03:40:48;99268.00;;;5.79;100.00
22283;BME280;11310;51.528;21.204;2023-04-26T03:43:19;99269.72;;;5.80;100.00
22283;BME280;11310;51.528;21.204;2023-04-26T03:45:50;99262.06;;;5.76;100.00
22283;BME280;11310;51.528;21.204;2023-04-26T03:48:18;99264.72;;;5.74;100.00
22283;BME280;11310;51.528;21.204;2023-04-26T03:50:47;99272.59;;;5.73;100.00
22283;BME280;11310;51.528;21.204;2023-04-26T03:53:15;99272.63;;;5.71;100.00
22283;BME280;11310;51.528;21.204;2023-04-26T03:55:44;99269.38;;;5.66;100.00
22283;BME280;11310;51.528;21.204;2023-04-26T03:58:13;99271.34;;;5.60;100.00
22283;BME280;11310;51.528;21.204;2023-04-26T04:00:42;99270.63;;;5.56;100.00
22283;BME280;11310;51.528;21.204;2023-04-26T04:03:12;99277.66;;;5.54;100.00
22283;BME280;11310;51.528;21.204;2023-04-26T04:05:42;99285.50;;;5.53;100.00
22283;BME280;11310;51.528;21.204;2023-04-26T04:08:12;99280.41;;;5.50;100.00
22283;BME280;11310;51.528;21.204;2023-04-26T04:10:41;99282.25;;;5.48;100.00
22283;BME280;11310;51.528;21.204;2023-04-26T04:13:10;99299.59;;;5.47;100.00
22283;BME280;11310;51.528;21.204;2023-04-26T04:15:50;99299.78;;;5.43;100.00
22283;BME280;11310;51.528;21.204;2023-04-26T04:18:21;99296.38;;;5.41;100.00
22283;BME280;11310;51.528;21.204;2023-04-26T04:20:50;99294.84;;;5.35;100.00
22283;BME280;11310;51.528;21.204;2023-04-26T04:23:18;99298.38;;;5.33;100.00
22283;BME280;11310;51.528;21.204;2023-04-26T04:25:48;99299.47;;;5.27;100.00
22283;BME280;11310;51.528;21.204;2023-04-26T04:28:19;99303.81;;;5.27;100.00
22283;BME280;11310;51.528;21.204;2023-04-26T04:30:50;99305.69;;;5.23;100.00
22283;BME280;11310;51.528;21.204;2023-04-26T04:33:22;99309.16;;;5.24;100.00
22283;BME280;11310;51.528;21.204;2023-04-26T04:35:51;99312.63;;;5.23;100.00
22283;BME280;11310;51.528;21.204;2023-04-26T04:38:22;99311.81;;;5.22;100.00
22283;BME280;11310;51.528;21.204;2023-04-26T04:40:54;99317.81;;;5.23;100.00
22283;BME280;11310;51.528;21.204;2023-04-26T04:43:25;99326.44;;;5.25;100.00
22283;BME280;11310;51.528;21.204;2023-04-26T04:45:55;99328.22;;;5.23;100.00
22283;BME280;11310;51.528;21.204;2023-04-26T04:48:26;99336.16;;;5.20;100.00
22283;BME280;11310;51.528;21.204;2023-04-26T04:50:55;99340.44;;;5.21;100.00
22283;BME280;11310;51.528;21.204;2023-04-26T04:53:25;99345.66;;;5.21;100.00
22283;BME280;11310;51.528;21.204;2023-04-26T04:55:55;99341.41;;;5.18;100.00
22283;BME280;11310;51.528;21.204;2023-04-26T04:58:24;99351.06;;;5.15;100.00
22283;BME280;11310;51.528;21.204;2023-04-26T05:00:57;99348.53;;;5.13;100.00
22283;BME280;11310;51.528;21.204;2023-04-26T05:03:31;99351.31;;;5.07;100.00
22283;BME280;11310;51.528;21.204;2023-04-26T05:06:02;99341.19;;;5.00;100.00
22283;BME280;11310;51.528;21.204;2023-04-26T05:08:34;99347.06;;;5.05;100.00
22283;BME280;11310;51.528;21.204;2023-04-26T05:11:04;99352.44;;;5.00;100.00
22283;BME280;11310;51.528;21.204;2023-04-26T05:13:33;99353.41;;;4.98;100.00
22283;BME280;11310;51.528;21.204;2023-04-26T05:16:04;99348.19;;;4.98;100.00
22283;BME280;11310;51.528;21.204;2023-04-26T05:18:34;99346.59;;;4.94;100.00
22283;BME280;11310;51.528;21.204;2023-04-26T05:21:04;99349.34;;;4.89;100.00
22283;BME280;11310;51.528;21.204;2023-04-26T05:23:34;99355.41;;;4.90;100.00
22283;BME280;11310;51.528;21.204;2023-04-26T05:26:04;99354.50;;;4.91;100.00
22283;BME280;11310;51.528;21.204;2023-04-26T05:29:10;99361.34;;;4.93;100.00
22283;BME280;11310;51.528;21.204;2023-04-26T05:32:01;99360.50;;;4.93;100.00
22283;BME280;11310;51.528;21.204;2023-04-26T05:34:40;99366.47;;;4.95;100.00
22283;BME280;11310;51.528;21.204;2023-04-26T05:37:13;99368.78;;;5.04;100.00
22283;BME280;11310;51.528;21.204;2023-04-26T05:39:43;99369.50;;;5.07;100.00
22283;BME280;11310;51.528;21.204;2023-04-26T05:42:12;99374.66;;;5.09;100.00
22283;BME280;11310;51.528;21.204;2023-04-26T05:44:44;99367.63;;;5.12;100.00
22283;BME280;11310;51.528;21.204;2023-04-26T05:47:24;99371.41;;;5.27;100.00
22283;BME280;11310;51.528;21.204;2023-04-26T05:49:56;99365.63;;;5.43;100.00
22283;BME280;11310;51.528;21.204;2023-04-26T05:52:25;99373.47;;;5.65;100.00
22283;BME280;11310;51.528;21.204;2023-04-26T05:54:54;99379.88;;;5.81;100.00
22283;BME280;11310;51.528;21.204;2023-04-26T05:57:23;99375.78;;;5.97;100.00
22283;BME280;11310;51.528;21.204;2023-04-26T05:59:52;99369.03;;;6.14;100.00
22283;BME280;11310;51.528;21.204;2023-04-26T06:02:21;99376.00;;;6.35;100.00
22283;BME280;11310;51.528;21.204;2023-04-26T06:04:50;99374.16;;;6.59;100.00
22283;BME280;11310;51.528;21.204;2023-04-26T06:07:21;99376.81;;;6.79;100.00
22283;BME280;11310;51.528;21.204;2023-04-26T06:09:50;99377.75;;;6.98;100.00
22283;BME280;11310;51.528;21.204;2023-04-26T06:12:19;99384.06;;;7.12;100.00
22283;BME280;11310;51.528;21.204;2023-04-26T06:14:48;99383.56;;;7.24;100.00
22283;BME280;11310;51.528;21.204;2023-04-26T06:17:22;99390.78;;;7.38;100.00
22283;BME280;11310;51.528;21.204;2023-04-26T06:19:51;99394.63;;;7.49;100.00
22283;BME280;11310;51.528;21.204;2023-04-26T06:22:22;99393.22;;;7.61;100.00
22283;BME280;11310;51.528;21.204;2023-04-26T06:24:51;99382.38;;;7.70;100.00
22283;BME280;11310;51.528;21.204;2023-04-26T06:27:19;99394.97;;;7.80;100.00
22283;BME280;11310;51.528;21.204;2023-04-26T06:29:49;99399.59;;;7.94;100.00
22283;BME280;11310;51.528;21.204;2023-04-26T06:32:20;99395.81;;;7.99;100.00
22283;BME280;11310;51.528;21.204;2023-04-26T06:34:49;99397.94;;;8.10;100.00
22283;BME280;11310;51.528;21.204;2023-04-26T06:37:27;99395.56;;;8.24;100.00
22283;BME280;11310;51.528;21.204;2023-04-26T06:39:56;99398.31;;;8.39;100.00
22283;BME280;11310;51.528;21.204;2023-04-26T06:42:25;99402.88;;;8.53;99.79
22283;BME280;11310;51.528;21.204;2023-04-26T06:45:14;99391.38;;;8.57;97.89
22283;BME280;11310;51.528;21.204;2023-04-26T06:47:45;99396.94;;;8.68;98.47
22283;BME280;11310;51.528;21.204;2023-04-26T06:50:13;99407.72;;;8.79;97.36
22283;BME280;11310;51.528;21.204;2023-04-26T06:52:44;99395.13;;;8.87;96.27
22283;BME280;11310;51.528;21.204;2023-04-26T06:55:14;99406.06;;;8.95;95.28
22283;BME280;11310;51.528;21.204;2023-04-26T06:57:43;99413.59;;;9.01;95.63
22283;BME280;11310;51.528;21.204;2023-04-26T07:00:13;99396.75;;;9.06;95.32
22283;BME280;11310;51.528;21.204;2023-04-26T07:02:41;99401.81;;;9.26;96.31
22283;BME280;11310;51.528;21.204;2023-04-26T07:05:11;99400.56;;;9.50;96.15
22283;BME280;11310;51.528;21.204;2023-04-26T07:07:41;99400.78;;;9.63;92.94
22283;BME280;11310;51.528;21.204;2023-04-26T07:10:11;99403.06;;;9.86;93.22
22283;BME280;11310;51.528;21.204;2023-04-26T07:12:40;99412.84;;;9.98;90.69
22283;BME280;11310;51.528;21.204;2023-04-26T07:15:10;99413.03;;;9.95;91.01
22283;BME280;11310;51.528;21.204;2023-04-26T07:17:39;99409.31;;;9.99;90.40
22283;BME280;11310;51.528;21.204;2023-04-26T07:20:09;99409.28;;;10.16;91.41
22283;BME280;11310;51.528;21.204;2023-04-26T07:22:40;99410.66;;;10.23;87.82
22283;BME280;11310;51.528;21.204;2023-04-26T07:25:10;99406.84;;;10.28;88.78
22283;BME280;11310;51.528;21.204;2023-04-26T07:27:39;99418.53;;;10.38;87.61
22283;BME280;11310;51.528;21.204;2023-04-26T07:30:09;99420.47;;;10.35;87.34
22283;BME280;11310;51.528;21.204;2023-04-26T07:32:38;99414.47;;;10.48;88.42
22283;BME280;11310;51.528;21.204;2023-04-26T07:35:08;99429.78;;;10.56;87.26
22283;BME280;11310;51.528;21.204;2023-04-26T07:37:42;99422.41;;;10.62;87.74
22283;BME280;11310;51.528;21.204;2023-04-26T07:40:13;99415.63;;;10.74;86.87
22283;BME280;11310;51.528;21.204;2023-04-26T07:42:42;99428.81;;;10.88;84.89
22283;BME280;11310;51.528;21.204;2023-04-26T07:45:12;99420.88;;;10.89;84.31
22283;BME280;11310;51.528;21.204;2023-04-26T07:47:40;99429.28;;;11.10;83.65
22283;BME280;11310;51.528;21.204;2023-04-26T07:50:10;99419.94;;;11.20;81.99
22283;BME280;11310;51.528;21.204;2023-04-26T07:52:39;99431.84;;;11.11;82.46
22283;BME280;11310;51.528;21.204;2023-04-26T07:55:09;99435.44;;;11.09;83.50
22283;BME280;11310;51.528;21.204;2023-04-26T07:57:40;99440.19;;;10.88;84.65
22283;BME280;11310;51.528;21.204;2023-04-26T08:00:09;99442.38;;;10.65;84.98
22283;BME280;11310;51.528;21.204;2023-04-26T08:02:39;99443.03;;;10.37;85.49
22283;BME280;11310;51.528;21.204;2023-04-26T08:05:11;99442.03;;;10.40;86.99
22283;BME280;11310;51.528;21.204;2023-04-26T08:07:49;99446.75;;;10.33;85.30
22283;BME280;11310;51.528;21.204;2023-04-26T08:10:18;99446.53;;;10.05;87.07
22283;BME280;11310;51.528;21.204;2023-04-26T08:12:50;99438.38;;;10.42;85.65
22283;BME280;11310;51.528;21.204;2023-04-26T08:15:18;99443.19;;;10.96;82.46
22283;BME280;11310;51.528;21.204;2023-04-26T08:17:47;99438.97;;;10.94;81.14
22283;BME280;11310;51.528;21.204;2023-04-26T08:20:19;99446.09;;;10.61;81.66
22283;BME280;11310;51.528;21.204;2023-04-26T08:22:49;99455.22;;;10.23;82.18
22283;BME280;11310;51.528;21.204;2023-04-26T08:25:30;99448.72;;;9.97;84.66
22283;BME280;11310;51.528;21.204;2023-04-26T08:28:03;99453.44;;;10.39;82.02
22283;BME280;11310;51.528;21.204;2023-04-26T08:30:34;99449.06;;;11.15;80.77
22283;BME280;11310;51.528;21.204;2023-04-26T08:33:02;99459.16;;;11.23;80.62
22283;BME280;11310;51.528;21.204;2023-04-26T08:35:31;99463.88;;;10.87;79.64
22283;BME280;11310;51.528;21.204;2023-04-26T08:38:00;99465.47;;;10.43;81.49
22283;BME280;11310;51.528;21.204;2023-04-26T08:40:30;99462.69;;;10.46;82.87
22283;BME280;11310;51.528;21.204;2023-04-26T08:42:59;99459.56;;;11.15;82.22
22283;BME280;11310;51.528;21.204;2023-04-26T08:45:30;99452.19;;;11.95;79.57
22283;BME280;11310;51.528;21.204;2023-04-26T08:48:02;99461.88;;;11.95;77.79
22283;BME280;11310;51.528;21.204;2023-04-26T08:50:33;99467.34;;;11.32;77.41
22283;BME280;11310;51.528;21.204;2023-04-26T08:53:05;99464.13;;;10.82;80.83
22283;BME280;11310;51.528;21.204;2023-04-26T08:55:35;99465.72;;;10.54;80.93
22283;BME280;11310;51.528;21.204;2023-04-26T08:58:05;99460.03;;;10.77;81.23
22283;BME280;11310;51.528;21.204;2023-04-26T09:00:42;99459.00;;;10.95;78.59
22283;BME280;11310;51.528;21.204;2023-04-26T09:03:13;99466.00;;;10.80;78.75
22283;BME280;11310;51.528;21.204;2023-04-26T09:05:44;99469.63;;;10.47;79.58
22283;BME280;11310;51.528;21.204;2023-04-26T09:08:15;99458.59;;;10.25;82.03
22283;BME280;11310;51.528;21.204;2023-04-26T09:10:45;99469.69;;;10.30;82.02
22283;BME280;11310;51.528;21.204;2023-04-26T09:13:15;99468.75;;;11.08;79.11
22283;BME280;11310;51.528;21.204;2023-04-26T09:15:47;99459.94;;;11.39;74.07
22283;BME280;11310;51.528;21.204;2023-04-26T09:18:17;99466.63;;;11.15;74.96
22283;BME280;11310;51.528;21.204;2023-04-26T09:21:01;99477.16;;;10.53;72.18
22283;BME280;11310;51.528;21.204;2023-04-26T09:23:35;99472.88;;;10.19;77.52
22283;BME280;11310;51.528;21.204;2023-04-26T09:26:17;99479.16;;;10.00;76.75
22283;BME280;11310;51.528;21.204;2023-04-26T09:28:47;99484.53;;;9.97;77.09
22283;BME280;11310;51.528;21.204;2023-04-26T09:31:40;99482.84;;;9.96;74.69
22283;BME280;11310;51.528;21.204;2023-04-26T09:34:11;99475.84;;;10.29;78.03
22283;BME280;11310;51.528;21.204;2023-04-26T09:36:48;99473.69;;;10.37;74.41
22283;BME280;11310;51.528;21.204;2023-04-26T09:39:30;99481.78;;;10.48;73.20
22283;BME280;11310;51.528;21.204;2023-04-26T09:42:00;99474.88;;;10.47;76.75
22283;BME280;11310;51.528;21.204;2023-04-26T09:44:29;99481.88;;;10.46;77.87
22283;BME280;11310;51.528;21.204;2023-04-26T09:47:01;99479.41;;;10.28;73.36
22283;BME280;11310;51.528;21.204;2023-04-26T09:49:41;99496.09;;;10.10;76.51
22283;BME280;11310;51.528;21.204;2023-04-26T09:52:11;99490.09;;;9.91;76.88
22283;BME280;11310;51.528;21.204;2023-04-26T09:54:44;99486.56;;;9.92;77.55
22283;BME280;11310;51.528;21.204;2023-04-26T09:57:13;99498.88;;;9.90;63.39
22283;BME280;11310;51.528;21.204;2023-04-26T09:59:43;99500.19;;;9.81;75.21
22283;BME280;11310;51.528;21.204;2023-04-26T10:02:17;99497.28;;;9.70;74.42
22283;BME280;11310;51.528;21.204;2023-04-26T10:04:48;99489.72;;;9.64;75.99
22283;BME280;11310;51.528;21.204;2023-04-26T10:07:30;99498.88;;;9.90;74.05
22283;BME280;11310;51.528;21.204;2023-04-26T10:10:00;99493.22;;;10.47;74.59
22283;BME280;11310;51.528;21.204;2023-04-26T10:12:31;99492.31;;;10.63;72.14
22283;BME280;11310;51.528;21.204;2023-04-26T10:15:00;99487.72;;;10.51;71.83
22283;BME280;11310;51.528;21.204;2023-04-26T10:17:33;99504.53;;;10.32;61.10
22283;BME280;11310;51.528;21.204;2023-04-26T10:20:03;99495.81;;;10.31;71.18
22283;BME280;11310;51.528;21.204;2023-04-26T10:22:42;99492.16;;;10.66;67.94
22283;BME280;11310;51.528;21.204;2023-04-26T10:25:12;99490.94;;;11.77;67.67
22283;BME280;11310;51.528;21.204;2023-04-26T10:27:51;99488.97;;;12.79;58.82
22283;BME280;11310;51.528;21.204;2023-04-26T10:30:21;99483.81;;;13.57;62.32
22283;BME280;11310;51.528;21.204;2023-04-26T10:33:22;99487.81;;;13.63;55.37
22283;BME280;11310;51.528;21.204;2023-04-26T10:36:04;99502.78;;;12.97;58.95
22283;BME280;11310;51.528;21.204;2023-04-26T10:38:35;99508.75;;;12.30;65.45
22283;BME280;11310;51.528;21.204;2023-04-26T10:41:27;99509.44;;;11.76;57.57
22283;BME280;11310;51.528;21.204;2023-04-26T10:43:57;99503.47;;;11.88;68.11
22283;BME280;11310;51.528;21.204;2023-04-26T10:46:37;99506.56;;;12.65;61.29
22283;BME280;11310;51.528;21.204;2023-04-26T10:49:15;99507.97;;;12.70;57.91
22283;BME280;11310;51.528;21.204;2023-04-26T10:52:09;99515.97;;;12.13;56.70
22283;BME280;11310;51.528;21.204;2023-04-26T10:54:55;99519.94;;;11.31;59.30
22283;BME280;11310;51.528;21.204;2023-04-26T10:57:46;99522.78;;;10.81;58.10
22283;BME280;11310;51.528;21.204;2023-04-26T11:00:28;99520.19;;;10.49;67.65
22283;BME280;11310;51.528;21.204;2023-04-26T11:03:03;99520.88;;;10.37;68.69
22283;BME280;11310;51.528;21.204;2023-04-26T11:05:35;99521.16;;;10.31;70.34
22283;BME280;11310;51.528;21.204;2023-04-26T11:08:06;99527.44;;;10.28;69.56
22283;BME280;11310;51.528;21.204;2023-04-26T11:10:38;99520.34;;;10.30;68.59
22283;BME280;11310;51.528;21.204;2023-04-26T11:13:07;99528.41;;;10.43;57.88
22283;BME280;11310;51.528;21.204;2023-04-26T11:15:36;99528.50;;;10.57;66.06
22283;BME280;11310;51.528;21.204;2023-04-26T11:18:05;99521.41;;;10.90;63.65
22283;BME280;11310;51.528;21.204;2023-04-26T11:20:35;99533.94;;;11.00;62.87
22283;BME280;11310;51.528;21.204;2023-04-26T11:23:06;99535.31;;;10.92;63.84
22283;BME280;11310;51.528;21.204;2023-04-26T11:25:38;99542.09;;;10.80;63.28
22283;BME280;11310;51.528;21.204;2023-04-26T11:28:07;99543.34;;;10.89;63.74
22283;BME280;11310;51.528;21.204;2023-04-26T11:30:36;99542.41;;;10.90;64.24
22283;BME280;11310;51.528;21.204;2023-04-26T11:33:05;99545.28;;;10.85;62.77
22283;BME280;11310;51.528;21.204;2023-04-26T11:35:35;99530.28;;;11.18;61.64
22283;BME280;11310;51.528;21.204;2023-04-26T11:38:05;99533.69;;;12.09;61.48
22283;BME280;11310;51.528;21.204;2023-04-26T11:40:34;99539.66;;;12.27;60.55
22283;BME280;11310;51.528;21.204;2023-04-26T11:43:04;99543.38;;;12.93;58.67
22283;BME280;11310;51.528;21.204;2023-04-26T11:45:46;99534.13;;;13.67;54.75
22283;BME280;11310;51.528;21.204;2023-04-26T11:48:15;99529.69;;;14.44;53.99
22283;BME280;11310;51.528;21.204;2023-04-26T11:50:45;99547.56;;;14.01;52.47
22283;BME280;11310;51.528;21.204;2023-04-26T11:53:14;99553.63;;;13.11;46.88
22283;BME280;11310;51.528;21.204;2023-04-26T11:55:43;99540.69;;;12.38;54.29
22283;BME280;11310;51.528;21.204;2023-04-26T11:58:13;99548.47;;;12.82;53.48
22283;BME280;11310;51.528;21.204;2023-04-26T12:00:55;99550.81;;;13.00;46.28
22283;BME280;11310;51.528;21.204;2023-04-26T12:03:28;99555.81;;;12.35;53.92
22283;BME280;11310;51.528;21.204;2023-04-26T12:05:59;99550.16;;;11.69;58.48
22283;BME280;11310;51.528;21.204;2023-04-26T12:08:28;99563.47;;;11.66;57.24
22283;BME280;11310;51.528;21.204;2023-04-26T12:11:01;99561.91;;;12.21;53.40
22283;BME280;11310;51.528;21.204;2023-04-26T12:13:30;99555.72;;;12.36;55.64
22283;BME280;11310;51.528;21.204;2023-04-26T12:16:06;99556.84;;;12.32;53.28
22283;BME280;11310;51.528;21.204;2023-04-26T12:18:51;99558.31;;;12.08;54.42
22283;BME280;11310;51.528;21.204;2023-04-26T12:21:21;99553.84;;;12.52;55.59
22283;BME280;11310;51.528;21.204;2023-04-26T12:23:51;99560.53;;;13.00;55.98
22283;BME280;11310;51.528;21.204;2023-04-26T12:26:19;99558.44;;;12.91;55.71
22283;BME280;11310;51.528;21.204;2023-04-26T12:28:48;99560.63;;;12.42;55.92
22283;BME280;11310;51.528;21.204;2023-04-26T12:31:17;99563.81;;;12.47;57.68
22283;BME280;11310;51.528;21.204;2023-04-26T12:33:45;99561.19;;;12.47;56.63
22283;BME280;11310;51.528;21.204;2023-04-26T12:36:14;99560.81;;;12.53;55.79
22283;BME280;11310;51.528;21.204;2023-04-26T12:38:45;99567.75;;;12.68;54.71
22283;BME280;11310;51.528;21.204;2023-04-26T12:41:13;99576.50;;;12.41;56.34
22283;BME280;11310;51.528;21.204;2023-04-26T12:43:42;99585.19;;;11.83;58.10
22283;BME280;11310;51.528;21.204;2023-04-26T12:46:11;99578.66;;;11.30;59.56
22283;BME280;11310;51.528;21.204;2023-04-26T12:48:39;99589.22;;;10.82;60.17
22283;BME280;11310;51.528;21.204;2023-04-26T12:51:08;99589.31;;;10.48;61.49
22283;BME280;11310;51.528;21.204;2023-04-26T12:53:36;99596.13;;;10.35;60.73
22283;BME280;11310;51.528;21.204;2023-04-26T12:56:06;99583.41;;;10.27;57.65
22283;BME280;11310;51.528;21.204;2023-04-26T12:58:35;99591.94;;;10.48;59.98
22283;BME280;11310;51.528;21.204;2023-04-26T13:01:04;99601.31;;;10.69;55.52
22283;BME280;11310;51.528;21.204;2023-04-26T13:03:32;99591.75;;;10.99;58.68
22283;BME280;11310;51.528;21.204;2023-04-26T13:06:03;99597.59;;;11.04;58.45
22283;BME280;11310;51.528;21.204;2023-04-26T13:08:32;99597.50;;;10.90;56.52
22283;BME280;11310;51.528;21.204;2023-04-26T13:11:01;99607.72;;;10.63;56.20